Terminal Aerodrome Forecast
Issued by NWS Lake Charles, LA

Home | Current Version | Previous Version | Text Only | Print | Product List | Glossary On
Versions: 1 2 3 4 5 6 7 8 9 10 11 12 13 14 15 16
000
FTUS44 KLCH 261738
TAFBPT
TAF
KBPT 261738Z 2618/2718 03006KT P6SM SCT015 BKN100
      TEMPO 2620/2624 VRB12G25KT 3SM TSRA OVC025CB
     FM270100 03004KT P6SM FEW050 BKN100=

USA.gov is the U.S. government's official web portal to all federal, state and local government web resources and services.